createdAt,value
2022-12-11T00:00:57.647Z,89.19
2022-12-11T00:03:25.827Z,89.26
2022-12-11T00:05:53.950Z,89.23
2022-12-11T00:08:22.219Z,89.10
2022-12-11T00:10:50.947Z,89.31
2022-12-11T00:13:19.011Z,89.24
2022-12-11T00:15:48.517Z,89.34
2022-12-11T00:18:16.627Z,89.31
2022-12-11T00:20:44.724Z,89.49
2022-12-11T00:23:13.071Z,89.22
2022-12-11T00:25:43.913Z,89.47
2022-12-11T00:28:12.342Z,89.44
2022-12-11T00:30:42.026Z,89.55
2022-12-11T00:33:12.629Z,89.46
2022-12-11T00:35:41.364Z,89.65
2022-12-11T00:38:09.683Z,89.75
2022-12-11T00:40:38.438Z,89.77
2022-12-11T00:43:06.525Z,89.80
2022-12-11T00:45:37.550Z,89.78
2022-12-11T00:48:06.488Z,89.92
2022-12-11T00:50:36.124Z,90.19
2022-12-11T00:53:05.694Z,89.87
2022-12-11T00:55:37.631Z,89.91
2022-12-11T00:58:05.814Z,90.00
2022-12-11T01:00:33.990Z,89.97
2022-12-11T01:03:02.521Z,90.07
2022-12-11T01:05:30.810Z,89.87
2022-12-11T01:08:00.667Z,89.86
2022-12-11T01:10:27.868Z,89.80
2022-12-11T01:12:57.300Z,89.83
2022-12-11T01:15:27.744Z,89.78
2022-12-11T01:17:56.442Z,89.88
2022-12-11T01:20:26.247Z,89.71
2022-12-11T01:22:54.714Z,89.70
2022-12-11T01:25:24.324Z,89.76
2022-12-11T01:27:53.846Z,89.76
2022-12-11T01:30:24.343Z,89.76
2022-12-11T01:32:52.539Z,89.86
2022-12-11T01:35:21.090Z,89.81
2022-12-11T01:37:49.857Z,89.83
2022-12-11T01:40:20.916Z,89.71
2022-12-11T01:42:50.566Z,90.01
2022-12-11T01:45:36.463Z,89.97
2022-12-11T01:48:08.040Z,90.11
2022-12-11T01:50:41.094Z,90.39
2022-12-11T01:53:11.841Z,90.12
2022-12-11T01:55:40.846Z,90.08
2022-12-11T01:58:11.828Z,90.07
2022-12-11T02:00:40.293Z,90.15
2022-12-11T02:03:09.174Z,89.98
2022-12-11T02:05:37.624Z,89.87
2022-12-11T02:08:07.478Z,89.82
2022-12-11T02:10:45.191Z,89.78
2022-12-11T02:13:19.455Z,89.85
2022-12-11T02:15:52.163Z,89.76
2022-12-11T02:18:26.727Z,89.80
2022-12-11T02:20:59.306Z,89.77
2022-12-11T02:24:01.753Z,89.68
2022-12-11T02:26:57.385Z,89.65
2022-12-11T02:29:31.671Z,89.54
2022-12-11T02:32:03.922Z,89.54
2022-12-11T02:34:35.210Z,89.43
2022-12-11T02:37:07.325Z,89.25
2022-12-11T02:39:36.634Z,89.15
2022-12-11T02:42:05.517Z,89.15
2022-12-11T02:44:35.375Z,89.03
2022-12-11T02:47:04.514Z,89.01
2022-12-11T02:49:33.734Z,88.92
2022-12-11T02:52:04.549Z,88.88
2022-12-11T02:54:37.814Z,88.96
2022-12-11T02:57:09.690Z,88.75
2022-12-11T02:59:40.818Z,89.00
2022-12-11T03:02:09.146Z,88.94
2022-12-11T03:04:37.748Z,88.74
2022-12-11T03:07:12.189Z,88.72
2022-12-11T03:09:40.720Z,88.76
2022-12-11T03:12:10.394Z,88.69
2022-12-11T03:14:41.673Z,88.99
2022-12-11T03:17:15.222Z,88.85
2022-12-11T03:19:48.707Z,88.89
2022-12-11T03:22:19.952Z,89.00
2022-12-11T03:24:52.431Z,88.67
2022-12-11T03:27:27.802Z,88.75
2022-12-11T03:29:59.270Z,88.86
2022-12-11T03:32:30.801Z,89.04
2022-12-11T03:35:04.489Z,88.92
2022-12-11T03:37:35.546Z,89.00
2022-12-11T03:40:08.083Z,88.83
2022-12-11T03:42:36.909Z,88.89
2022-12-11T03:45:08.619Z,88.96
2022-12-11T03:47:37.931Z,89.07
2022-12-11T03:50:07.282Z,88.86
2022-12-11T03:52:38.628Z,88.99
2022-12-11T03:55:11.687Z,89.03
2022-12-11T03:57:40.613Z,88.89
2022-12-11T04:00:14.891Z,89.03
2022-12-11T04:02:43.579Z,88.71
2022-12-11T04:05:12.714Z,88.91
2022-12-11T04:07:41.034Z,89.17
2022-12-11T04:10:09.377Z,89.21
2022-12-11T04:12:37.452Z,89.01
2022-12-11T04:15:05.246Z,88.87
2022-12-11T04:17:54.960Z,88.75
2022-12-11T04:20:41.210Z,88.93
2022-12-11T04:23:32.261Z,88.96
2022-12-11T04:26:05.501Z,88.97
2022-12-11T04:28:33.735Z,89.10
2022-12-11T04:31:02.011Z,89.09
2022-12-11T04:33:31.676Z,89.45
2022-12-11T04:36:00.301Z,89.38
2022-12-11T04:38:28.452Z,89.40
2022-12-11T04:41:00.315Z,89.31
2022-12-11T04:43:28.653Z,89.23
2022-12-11T04:46:02.809Z,89.38
2022-12-11T04:48:32.359Z,89.17
2022-12-11T04:51:00.796Z,89.21
2022-12-11T04:53:29.059Z,89.18
2022-12-11T04:55:57.235Z,89.17
2022-12-11T04:58:26.342Z,89.09
2022-12-11T05:00:54.974Z,89.03
2022-12-11T05:03:24.345Z,89.10
2022-12-11T05:05:54.866Z,88.89
2022-12-11T05:08:23.089Z,88.84
2022-12-11T05:10:57.433Z,88.68
2022-12-11T05:13:25.993Z,88.76
2022-12-11T05:15:54.175Z,88.87
2022-12-11T05:18:22.499Z,88.72
2022-12-11T05:20:57.842Z,88.74
2022-12-11T05:23:26.572Z,88.65
2022-12-11T05:25:55.023Z,88.52
2022-12-11T05:28:24.916Z,88.56
2022-12-11T05:30:57.877Z,88.54
2022-12-11T05:33:26.236Z,88.57
2022-12-11T05:35:54.361Z,88.63
2022-12-11T05:38:24.367Z,88.71
2022-12-11T05:41:02.853Z,88.96
2022-12-11T05:43:33.366Z,89.03
2022-12-11T05:46:07.082Z,89.08
2022-12-11T05:48:35.535Z,89.11
2022-12-11T05:51:04.639Z,89.03
2022-12-11T05:53:34.398Z,89.12
2022-12-11T05:56:11.222Z,88.97
2022-12-11T05:58:40.019Z,88.92
2022-12-11T06:01:09.628Z,88.76
2022-12-11T06:03:37.991Z,88.63
2022-12-11T06:06:06.918Z,88.80
2022-12-11T06:08:36.528Z,88.86
2022-12-11T06:11:05.655Z,88.82
2022-12-11T06:13:34.168Z,88.68
2022-12-11T06:16:03.682Z,88.79
2022-12-11T06:18:32.027Z,88.73
2022-12-11T06:21:00.124Z,88.87
2022-12-11T06:23:28.179Z,88.92
2022-12-11T06:25:57.660Z,88.94
2022-12-11T06:28:25.730Z,88.88
2022-12-11T06:30:53.885Z,88.85
2022-12-11T06:33:21.969Z,89.05
2022-12-11T06:35:50.090Z,88.94
2022-12-11T06:38:18.474Z,88.95
2022-12-11T06:40:47.690Z,89.04
2022-12-11T06:43:17.173Z,89.00
2022-12-11T06:45:45.279Z,88.95
2022-12-11T06:48:13.421Z,88.91
2022-12-11T06:50:41.542Z,88.69
2022-12-11T06:53:10.888Z,88.95
2022-12-11T06:55:38.993Z,88.75
2022-12-11T06:58:07.096Z,89.02
2022-12-11T07:00:37.990Z,88.94
2022-12-11T07:03:06.520Z,88.84
2022-12-11T07:05:34.697Z,88.86
2022-12-11T07:08:02.897Z,88.71
2022-12-11T07:10:31.076Z,88.71
2022-12-11T07:12:59.501Z,88.67
2022-12-11T07:15:27.626Z,89.02
2022-12-11T07:17:57.121Z,88.76
2022-12-11T07:20:25.195Z,88.76
2022-12-11T07:22:54.774Z,88.77
2022-12-11T07:25:22.855Z,88.66
2022-12-11T07:27:50.920Z,88.66
2022-12-11T07:30:19.279Z,88.73
2022-12-11T07:32:47.482Z,88.69
2022-12-11T07:35:17.055Z,88.79
2022-12-11T07:37:45.935Z,88.72
2022-12-11T07:40:14.850Z,88.95
2022-12-11T07:42:46.257Z,88.86
2022-12-11T07:45:14.692Z,88.66
2022-12-11T07:47:42.874Z,88.69
2022-12-11T07:50:11.258Z,88.71
2022-12-11T07:52:40.708Z,88.72
2022-12-11T07:55:09.749Z,88.85
2022-12-11T07:57:38.071Z,88.98
2022-12-11T08:00:07.585Z,88.90
2022-12-11T08:02:37.476Z,88.90
2022-12-11T08:05:06.766Z,88.82
2022-12-11T08:07:35.687Z,88.81
2022-12-11T08:10:05.797Z,88.82
2022-12-11T08:12:33.914Z,88.96
2022-12-11T08:15:02.012Z,88.88
2022-12-11T08:17:33.910Z,89.02
2022-12-11T08:20:05.459Z,89.15
2022-12-11T08:22:33.517Z,89.29
2022-12-11T08:25:01.592Z,89.34
2022-12-11T08:27:31.108Z,89.26
2022-12-11T08:29:59.229Z,89.37
2022-12-11T08:32:27.326Z,89.48
2022-12-11T08:34:55.515Z,89.60
2022-12-11T08:37:23.597Z,89.89
2022-12-11T08:39:52.151Z,90.09
2022-12-11T08:42:20.275Z,90.02
2022-12-11T08:44:50.237Z,89.96
2022-12-11T08:47:18.379Z,89.86
2022-12-11T08:49:46.504Z,90.19
2022-12-11T08:52:14.604Z,90.04
2022-12-11T08:54:43.224Z,90.05
2022-12-11T08:57:11.316Z,90.17
2022-12-11T08:59:39.407Z,90.07
2022-12-11T09:02:12.048Z,90.26
2022-12-11T09:04:40.287Z,90.21
2022-12-11T09:07:08.390Z,90.33
2022-12-11T09:09:36.486Z,90.21
2022-12-11T09:12:04.900Z,90.26
2022-12-11T09:14:33.026Z,90.15
2022-12-11T09:17:01.082Z,89.94
2022-12-11T09:19:32.410Z,89.82
2022-12-11T09:22:00.726Z,90.23
2022-12-11T09:24:28.808Z,90.68
2022-12-11T09:26:56.928Z,90.97
2022-12-11T09:29:25.044Z,91.06
2022-12-11T09:31:53.112Z,91.23
2022-12-11T09:34:27.490Z,91.00
2022-12-11T09:36:58.494Z,90.70
2022-12-11T09:39:26.653Z,91.09
2022-12-11T09:42:01.362Z,91.42
2022-12-11T09:44:35.605Z,91.31
2022-12-11T09:47:03.818Z,91.09
2022-12-11T09:49:36.539Z,90.94
2022-12-11T09:52:13.724Z,90.83
2022-12-11T09:54:46.289Z,90.66
2022-12-11T09:57:23.481Z,90.41
2022-12-11T10:00:05.696Z,90.27
2022-12-11T10:02:44.107Z,90.25
2022-12-11T10:05:18.895Z,89.73
2022-12-11T10:07:52.916Z,89.50
2022-12-11T10:10:27.503Z,89.21
2022-12-11T10:13:02.033Z,88.81
2022-12-11T10:15:37.603Z,88.79
2022-12-11T10:18:09.831Z,88.87
2022-12-11T10:20:40.481Z,88.93
2022-12-11T10:23:23.397Z,88.56
2022-12-11T10:25:59.909Z,88.10
2022-12-11T10:28:29.114Z,87.89
2022-12-11T10:31:04.717Z,87.65
2022-12-11T10:33:37.166Z,87.62
2022-12-11T10:36:08.771Z,87.69
2022-12-11T10:38:41.676Z,87.91
2022-12-11T10:41:13.385Z,87.55
2022-12-11T10:43:44.360Z,87.70
2022-12-11T10:46:17.659Z,88.10
2022-12-11T10:48:50.779Z,87.56
2022-12-11T10:51:18.906Z,87.16
2022-12-11T10:53:53.105Z,87.49
2022-12-11T10:56:27.589Z,87.37
2022-12-11T10:58:55.958Z,87.33
2022-12-11T11:01:25.671Z,87.03
2022-12-11T11:03:57.962Z,87.02
2022-12-11T11:06:26.841Z,87.19
2022-12-11T11:08:57.855Z,86.49
2022-12-11T11:11:28.984Z,86.70
2022-12-11T11:14:14.742Z,86.59
2022-12-11T11:16:45.524Z,86.51
2022-12-11T11:19:21.432Z,86.18
2022-12-11T11:21:52.085Z,85.75
2022-12-11T11:24:28.588Z,85.79
2022-12-11T11:27:13.070Z,86.12
2022-12-11T11:29:42.391Z,86.14
2022-12-11T11:32:18.689Z,86.03
2022-12-11T11:34:46.858Z,86.28
2022-12-11T11:37:25.279Z,86.11
2022-12-11T11:39:58.954Z,86.09
2022-12-11T11:42:33.452Z,86.22
2022-12-11T11:45:04.506Z,86.26
2022-12-11T11:47:37.854Z,86.33
2022-12-11T11:50:11.653Z,86.52
2022-12-11T11:52:44.285Z,85.88
2022-12-11T11:55:22.371Z,86.18
2022-12-11T11:57:56.565Z,86.28
2022-12-11T12:00:31.872Z,86.48
2022-12-11T12:03:03.709Z,86.45
2022-12-11T12:05:39.423Z,86.36
2022-12-11T12:08:12.448Z,86.64
2022-12-11T12:10:48.826Z,86.60
2022-12-11T12:13:48.705Z,86.83
2022-12-11T12:16:51.065Z,87.15
2022-12-11T12:19:15.931Z,87.40
2022-12-11T12:21:48.280Z,87.41
2022-12-11T12:24:24.985Z,87.11
2022-12-11T12:27:00.864Z,86.70
2022-12-11T12:29:41.530Z,86.25
2022-12-11T12:32:14.118Z,86.52
2022-12-11T12:34:55.279Z,85.31
2022-12-11T12:37:35.332Z,85.03
2022-12-11T12:40:13.123Z,85.15
2022-12-11T12:42:50.962Z,84.63
2022-12-11T12:45:27.305Z,84.71
2022-12-11T12:47:55.411Z,84.74
2022-12-11T12:50:25.580Z,84.91
2022-12-11T12:52:54.049Z,84.94
2022-12-11T12:55:24.239Z,85.45
2022-12-11T12:57:55.674Z,85.73
2022-12-11T13:00:33.213Z,84.46
2022-12-11T13:03:03.903Z,84.26
2022-12-11T13:05:35.171Z,83.61
2022-12-11T13:08:06.064Z,84.55
2022-12-11T13:10:35.744Z,84.06
2022-12-11T13:13:06.635Z,84.47
2022-12-11T13:15:39.028Z,84.35
2022-12-11T13:18:32.514Z,83.60
2022-12-11T13:21:00.696Z,83.17
2022-12-11T13:23:31.273Z,83.63
2022-12-11T13:26:00.970Z,83.21
2022-12-11T13:28:46.709Z,83.59
2022-12-11T13:31:40.632Z,83.59
2022-12-11T13:34:16.128Z,84.03
2022-12-11T13:36:48.814Z,84.25
2022-12-11T13:39:21.318Z,84.40
2022-12-11T13:41:53.305Z,84.59
2022-12-11T13:44:27.004Z,84.54
2022-12-11T13:46:56.508Z,84.66
2022-12-11T13:49:26.585Z,84.94
2022-12-11T13:51:59.696Z,84.94
2022-12-11T13:54:28.506Z,85.16
2022-12-11T13:57:02.296Z,85.32
2022-12-11T13:59:34.511Z,85.45
2022-12-11T14:02:07.124Z,85.49
2022-12-11T14:04:35.496Z,85.64
2022-12-11T14:07:07.804Z,85.89
2022-12-11T14:09:38.678Z,85.83
2022-12-11T14:12:07.334Z,85.78
2022-12-11T14:14:43.848Z,85.90
2022-12-11T14:17:15.033Z,85.57
2022-12-11T14:19:48.135Z,85.90
2022-12-11T14:22:20.877Z,85.68
2022-12-11T14:24:53.009Z,85.61
2022-12-11T14:27:21.712Z,85.68
2022-12-11T14:29:51.562Z,85.58
2022-12-11T14:32:26.015Z,85.69
2022-12-11T14:34:54.746Z,85.68
2022-12-11T14:37:24.934Z,85.77
2022-12-11T14:39:58.791Z,85.81
2022-12-11T14:42:30.990Z,85.92
2022-12-11T14:45:04.714Z,85.85
2022-12-11T14:47:39.795Z,85.99
2022-12-11T14:50:10.442Z,85.88
2022-12-11T14:52:41.032Z,85.91
2022-12-11T14:55:14.016Z,85.88
2022-12-11T14:57:45.148Z,85.80
2022-12-11T15:00:25.702Z,85.68
2022-12-11T15:03:02.063Z,85.68
2022-12-11T15:05:33.341Z,85.60
2022-12-11T15:08:24.408Z,85.47
2022-12-11T15:11:11.739Z,85.55
2022-12-11T15:13:49.764Z,85.31
2022-12-11T15:16:19.595Z,85.72
2022-12-11T15:18:49.872Z,85.89
2022-12-11T15:21:18.435Z,85.94
2022-12-11T15:23:53.322Z,85.88
2022-12-11T15:26:22.240Z,85.78
2022-12-11T15:29:00.995Z,85.89
2022-12-11T15:31:32.707Z,85.98
2022-12-11T15:34:00.891Z,85.90
2022-12-11T15:36:33.806Z,86.13
2022-12-11T15:39:02.584Z,86.00
2022-12-11T15:41:33.315Z,86.01
2022-12-11T15:44:03.030Z,86.13
2022-12-11T15:46:36.738Z,86.14
2022-12-11T15:49:12.522Z,86.14
2022-12-11T15:51:43.170Z,86.28
2022-12-11T15:54:11.703Z,86.30
2022-12-11T15:56:40.179Z,86.33
2022-12-11T15:59:08.298Z,86.42
2022-12-11T16:01:37.803Z,86.44
2022-12-11T16:04:06.069Z,86.64
2022-12-11T16:06:34.429Z,86.60
2022-12-11T16:09:04.039Z,86.72
2022-12-11T16:11:32.176Z,86.73
2022-12-11T16:14:03.433Z,86.80
2022-12-11T16:16:31.539Z,86.87
2022-12-11T16:19:01.212Z,86.96
2022-12-11T16:21:29.371Z,86.84
2022-12-11T16:23:57.494Z,86.94
2022-12-11T16:26:25.563Z,87.02
2022-12-11T16:28:53.678Z,86.97
2022-12-11T16:31:22.195Z,86.89
2022-12-11T16:33:50.406Z,86.99
2022-12-11T16:36:20.689Z,87.24
2022-12-11T16:38:53.613Z,87.19
2022-12-11T16:41:22.835Z,87.17
2022-12-11T16:43:51.033Z,87.16
2022-12-11T16:46:19.593Z,87.09
2022-12-11T16:48:47.762Z,87.06
2022-12-11T16:51:16.008Z,87.19
2022-12-11T16:53:46.110Z,87.31
2022-12-11T16:56:14.211Z,87.52
2022-12-11T16:58:42.327Z,87.64
2022-12-11T17:01:12.173Z,87.73
2022-12-11T17:03:40.614Z,87.99
2022-12-11T17:06:10.117Z,88.15
2022-12-11T17:08:38.282Z,88.30
2022-12-11T17:11:08.400Z,88.59
2022-12-11T17:13:36.728Z,88.47
2022-12-11T17:16:06.365Z,88.66
2022-12-11T17:18:34.801Z,88.61
2022-12-11T17:21:07.011Z,88.82
2022-12-11T17:23:35.128Z,88.75
2022-12-11T17:26:03.803Z,88.68
2022-12-11T17:28:33.336Z,88.77
2022-12-11T17:31:01.492Z,88.68
2022-12-11T17:33:29.592Z,88.48
2022-12-11T17:36:00.498Z,88.57
2022-12-11T17:38:28.667Z,88.64
2022-12-11T17:40:56.779Z,88.44
2022-12-11T17:43:24.931Z,88.45
2022-12-11T17:45:55.151Z,88.29
2022-12-11T17:48:23.368Z,88.34
2022-12-11T17:50:52.868Z,88.39
2022-12-11T17:53:22.040Z,88.21
2022-12-11T17:55:51.695Z,88.21
2022-12-11T17:58:21.741Z,88.15
2022-12-11T18:00:51.493Z,88.34
2022-12-11T18:03:21.150Z,88.26
2022-12-11T18:05:50.978Z,88.23
2022-12-11T18:08:23.337Z,88.25
2022-12-11T18:10:51.423Z,88.33
2022-12-11T18:13:19.979Z,88.26
2022-12-11T18:15:48.656Z,88.36
2022-12-11T18:18:16.834Z,88.27
2022-12-11T18:20:49.855Z,88.21
2022-12-11T18:23:17.951Z,88.36
2022-12-11T18:25:46.028Z,88.37
2022-12-11T18:28:14.325Z,88.34
2022-12-11T18:30:42.399Z,88.30
2022-12-11T18:33:10.472Z,88.11
2022-12-11T18:35:38.495Z,87.91
2022-12-11T18:38:08.033Z,87.95
2022-12-11T18:40:36.155Z,87.91
2022-12-11T18:43:04.287Z,87.74
2022-12-11T18:45:33.070Z,87.79
2022-12-11T18:48:01.155Z,87.74
2022-12-11T18:50:29.209Z,87.56
2022-12-11T18:52:57.275Z,87.54
2022-12-11T18:55:26.849Z,87.54
2022-12-11T18:57:54.896Z,87.47
2022-12-11T19:00:23.189Z,87.46
2022-12-11T19:02:52.279Z,87.52
2022-12-11T19:05:20.473Z,87.50
2022-12-11T19:07:48.580Z,87.49
2022-12-11T19:10:16.734Z,87.41
2022-12-11T19:12:46.198Z,87.44
2022-12-11T19:15:17.375Z,87.54
2022-12-11T19:17:47.699Z,87.52
2022-12-11T19:20:47.623Z,87.65
2022-12-11T19:23:03.857Z,87.68
2022-12-11T19:25:31.953Z,87.86
2022-12-11T19:28:01.826Z,88.04
2022-12-11T19:30:29.877Z,87.92
2022-12-11T19:32:58.374Z,88.17
2022-12-11T19:35:26.452Z,88.33
2022-12-11T19:37:54.535Z,88.45
2022-12-11T19:40:26.186Z,88.53
2022-12-11T19:42:54.241Z,88.73
2022-12-11T19:45:23.777Z,88.64
2022-12-11T19:47:51.909Z,88.86
2022-12-11T19:50:20.050Z,88.97
2022-12-11T19:52:48.126Z,89.06
2022-12-11T19:55:16.166Z,89.04
2022-12-11T19:57:44.465Z,89.32
2022-12-11T20:00:13.292Z,89.19
2022-12-11T20:02:42.725Z,89.35
2022-12-11T20:05:11.696Z,89.34
2022-12-11T20:07:40.164Z,89.31
2022-12-11T20:10:09.071Z,89.43
2022-12-11T20:12:37.143Z,89.38
2022-12-11T20:15:08.667Z,89.37
2022-12-11T20:17:39.734Z,89.39
2022-12-11T20:20:10.781Z,89.20
2022-12-11T20:22:38.974Z,89.24
2022-12-11T20:25:07.853Z,89.20
2022-12-11T20:27:35.925Z,89.14
2022-12-11T20:30:04.511Z,89.03
2022-12-11T20:32:33.302Z,88.99
2022-12-11T20:35:01.420Z,88.86
2022-12-11T20:37:31.116Z,89.06
2022-12-11T20:39:59.345Z,89.10
2022-12-11T20:42:27.580Z,88.63
2022-12-11T20:44:55.695Z,88.99
2022-12-11T20:47:23.801Z,88.96
2022-12-11T20:49:52.530Z,88.96
2022-12-11T20:52:20.862Z,89.08
2022-12-11T20:54:50.346Z,89.03
2022-12-11T20:57:18.653Z,89.09
2022-12-11T20:59:46.750Z,89.12
2022-12-11T21:02:14.896Z,89.11
2022-12-11T21:04:43.424Z,89.06
2022-12-11T21:07:11.895Z,89.07
2022-12-11T21:09:40.497Z,89.06
2022-12-11T21:12:10.387Z,89.00
2022-12-11T21:14:38.882Z,89.03
2022-12-11T21:17:07.025Z,89.30
2022-12-11T21:19:35.109Z,89.16
2022-12-11T21:22:03.717Z,89.28
2022-12-11T21:24:32.386Z,89.22
2022-12-11T21:27:00.654Z,89.09
2022-12-11T21:29:30.407Z,89.18
2022-12-11T21:31:58.960Z,89.13
2022-12-11T21:34:27.841Z,89.14
2022-12-11T21:36:57.086Z,89.22
2022-12-11T21:39:25.613Z,89.16
2022-12-11T21:41:53.730Z,89.24
2022-12-11T21:47:11.450Z,89.37
2022-12-11T21:49:39.683Z,89.37
2022-12-11T21:52:08.405Z,89.25
2022-12-11T21:54:36.746Z,89.28
2022-12-11T21:57:05.130Z,89.38
2022-12-11T21:59:33.285Z,89.24
2022-12-11T22:02:01.350Z,89.25
2022-12-11T22:04:30.841Z,89.19
2022-12-11T22:06:59.016Z,89.29
2022-12-11T22:09:27.397Z,89.43
2022-12-11T22:11:58.620Z,89.19
2022-12-11T22:14:27.017Z,89.33
2022-12-11T22:16:55.288Z,89.26
2022-12-11T22:19:25.614Z,89.51
2022-12-11T22:21:59.935Z,89.52
2022-12-11T22:24:27.972Z,89.46
2022-12-11T22:26:56.037Z,89.44
2022-12-11T22:29:24.112Z,89.43
2022-12-11T22:31:52.845Z,89.46
2022-12-11T22:34:20.949Z,89.39
2022-12-11T22:36:49.006Z,89.38
2022-12-11T22:39:18.455Z,89.33
2022-12-11T22:41:46.531Z,89.50
2022-12-11T22:44:16.728Z,89.46
2022-12-11T22:46:49.620Z,89.34
2022-12-11T22:49:18.755Z,89.49
2022-12-11T22:51:46.876Z,89.53
2022-12-11T22:54:14.969Z,89.32
2022-12-11T22:56:44.432Z,89.30
2022-12-11T22:59:12.594Z,89.10
2022-12-11T23:01:40.672Z,89.04
2022-12-11T23:04:08.732Z,89.06
2022-12-11T23:06:36.907Z,89.07
2022-12-11T23:09:05.151Z,88.85
2022-12-11T23:11:36.261Z,89.06
2022-12-11T23:14:06.608Z,88.85
2022-12-11T23:16:34.747Z,88.72
2022-12-11T23:19:02.980Z,88.73
2022-12-11T23:21:31.205Z,88.76
2022-12-11T23:23:59.830Z,88.42
2022-12-11T23:26:28.469Z,88.47
2022-12-11T23:28:57.397Z,88.34
2022-12-11T23:31:27.484Z,88.52
2022-12-11T23:33:55.645Z,88.45
2022-12-11T23:36:23.866Z,88.51
2022-12-11T23:38:54.832Z,88.41
2022-12-11T23:41:23.891Z,88.47
2022-12-11T23:43:51.929Z,88.53
2022-12-11T23:46:23.484Z,88.32
2022-12-11T23:48:53.692Z,88.22
2022-12-11T23:51:22.995Z,88.27
2022-12-11T23:53:51.433Z,88.15
2022-12-11T23:56:21.259Z,88.22
2022-12-11T23:58:49.916Z,88.21
